Time;durP1;ratioP1;P1;durP2;ratioP2;P2;SDS_P1;SDS_P2;PMS_P1;PMS_P2;Temp;Humidity;BMP_temperature;BMP_pressure;BME280_temperature;BME280_humidity;BME280_pressure;Samples;Min_cycle;Max_cycle;Signal;HPM_P1;HPM_P2
2023/08/25 00:00:38;;;;;;;9.68;8.43;;;21.50;99.90;;;;;;5115587;28;20080;-68
2023/08/25 00:03:05;;;;;;;9.43;8.40;;;21.50;99.90;;;;;;5115642;28;20042;-69
2023/08/25 00:05:38;;;;;;;11.52;8.90;;;21.50;99.90;;;;;;5097690;28;20062;-69
2023/08/25 00:08:05;;;;;;;16.40;9.45;;;21.50;99.90;;;;;;5115608;28;20032;-68
2023/08/25 00:10:30;;;;;;;14.88;9.63;;;21.40;99.90;;;;;;5115150;28;20072;-69
2023/08/25 00:12:56;;;;;;;15.68;9.77;;;21.40;99.90;;;;;;5115235;28;20106;-68
2023/08/25 00:15:22;;;;;;;14.75;9.18;;;21.40;99.90;;;;;;5115033;28;20024;-68
2023/08/25 00:17:47;;;;;;;10.15;8.73;;;21.80;99.90;;;;;;5096157;28;20031;-68
2023/08/25 00:20:13;;;;;;;14.48;8.00;;;22.30;99.90;;;;;;5115245;28;20177;-68
2023/08/25 00:22:40;;;;;;;13.43;6.85;;;22.80;99.90;;;;;;5115035;28;20586;-68
2023/08/25 00:25:06;;;;;;;18.58;6.07;;;23.20;99.90;;;;;;5097121;28;20027;-68
2023/08/25 00:27:32;;;;;;;10.88;4.40;;;23.50;99.90;;;;;;5115133;28;20027;-68
2023/08/25 00:29:57;;;;;;;9.15;3.65;;;23.70;99.90;;;;;;5114762;28;20035;-69
2023/08/25 00:32:23;;;;;;;6.13;2.78;;;23.80;99.90;;;;;;5096745;28;20027;-68
2023/08/25 00:34:49;;;;;;;11.50;2.78;;;23.80;99.90;;;;;;5114971;28;20465;-68
2023/08/25 00:37:14;;;;;;;3.72;2.38;;;23.80;99.90;;;;;;5115021;28;20107;-68
2023/08/25 00:39:40;;;;;;;5.88;2.15;;;23.80;99.90;;;;;;5096870;28;20032;-68
2023/08/25 00:42:06;;;;;;;9.10;1.48;;;23.70;99.90;;;;;;5115086;28;20035;-68
2023/08/25 00:44:31;;;;;;;2.78;1.35;;;23.60;99.90;;;;;;5096586;28;20077;-68
2023/08/25 00:46:58;;;;;;;3.35;0.90;;;23.60;99.90;;;;;;5096685;28;20031;-68
2023/08/25 00:49:24;;;;;;;3.70;0.85;;;23.60;99.90;;;;;;5093125;28;20382;-68
2023/08/25 00:51:51;;;;;;;3.15;0.80;;;23.60;99.90;;;;;;5094437;28;20055;-68
2023/08/25 00:54:20;;;;;;;4.50;0.70;;;23.60;99.90;;;;;;5093419;28;20034;-68
2023/08/25 00:56:47;;;;;;;1.88;0.47;;;23.70;99.90;;;;;;5092954;28;20385;-69
2023/08/25 00:59:13;;;;;;;5.55;0.82;;;23.60;99.90;;;;;;5092966;28;20393;-68
2023/08/25 01:01:40;;;;;;;4.07;0.43;;;23.60;99.90;;;;;;5094189;28;20099;-68
2023/08/25 01:04:06;;;;;;;6.13;0.60;;;23.50;99.90;;;;;;5092578;28;20028;-68
2023/08/25 01:06:31;;;;;;;1.33;0.50;;;23.40;99.90;;;;;;5094095;28;20027;-69
2023/08/25 01:08:58;;;;;;;5.00;0.40;;;23.30;99.90;;;;;;5093819;28;20539;-68
2023/08/25 01:11:33;;;;;;;5.68;0.63;;;23.20;99.90;;;;;;5092829;28;20071;-68
2023/08/25 01:14:26;;;;;;;7.25;0.70;;;23.10;99.90;;;;;;5093806;28;20084;-68
2023/08/25 01:17:04;;;;;;;3.50;0.70;;;23.00;99.90;;;;;;5093118;28;20426;-68
2023/08/25 01:19:40;;;;;;;1.73;0.50;;;23.00;99.90;;;;;;5094032;28;20039;-68
2023/08/25 01:22:13;;;;;;;4.25;0.70;;;22.90;99.90;;;;;;5093972;28;20107;-68
2023/08/25 01:24:41;;;;;;;2.35;0.60;;;22.80;99.90;;;;;;5092753;28;20020;-68
2023/08/25 01:27:07;;;;;;;3.22;0.40;;;22.80;99.90;;;;;;5093592;28;20028;-68
2023/08/25 01:29:35;;;;;;;4.10;0.73;;;22.90;99.90;;;;;;5096480;28;20481;-68
2023/08/25 01:32:02;;;;;;;4.95;0.60;;;22.90;99.90;;;;;;5100633;28;20099;-68
2023/08/25 01:34:28;;;;;;;5.38;1.10;;;22.90;99.90;;;;;;5099300;28;20035;-68
2023/08/25 01:37:10;;;;;;;3.50;0.55;;;22.90;99.90;;;;;;5100255;28;20028;-68
2023/08/25 01:39:40;;;;;;;2.90;0.55;;;22.90;99.90;;;;;;5099876;28;20491;-69
2023/08/25 01:42:08;;;;;;;5.65;0.50;;;23.00;99.90;;;;;;5100471;28;20039;-69
2023/08/25 01:44:35;;;;;;;2.85;0.60;;;23.00;99.90;;;;;;5100487;28;20028;-68
2023/08/25 01:47:05;;;;;;;1.50;0.70;;;23.00;99.90;;;;;;5100446;28;20377;-68
2023/08/25 01:49:32;;;;;;;1.85;1.15;;;23.00;99.90;;;;;;5106507;28;20130;-69
2023/08/25 01:51:59;;;;;;;2.33;0.47;;;22.90;99.90;;;;;;5120627;28;20032;-69
2023/08/25 01:54:25;;;;;;;0.85;0.32;;;22.90;99.90;;;;;;5102577;28;20491;-69
2023/08/25 01:56:51;;;;;;;2.80;0.50;;;22.90;99.90;;;;;;5102912;28;20024;-69
2023/08/25 01:59:16;;;;;;;2.40;0.63;;;22.80;99.90;;;;;;5126414;28;20492;-69
2023/08/25 02:01:42;;;;;;;1.10;0.40;;;22.80;99.90;;;;;;5125089;28;20028;-69
2023/08/25 02:04:07;;;;;;;2.33;0.50;;;22.80;99.90;;;;;;5122551;28;20031;-69
2023/08/25 02:06:33;;;;;;;1.42;0.50;;;22.80;99.90;;;;;;5120834;28;20050;-69
2023/08/25 02:08:59;;;;;;;0.50;0.40;;;22.80;99.90;;;;;;5102787;28;20030;-68
2023/08/25 02:11:25;;;;;;;1.17;0.45;;;22.80;99.90;;;;;;5102344;28;20031;-68
2023/08/25 02:13:50;;;;;;;2.92;0.57;;;22.80;99.90;;;;;;5102334;28;20024;-69
2023/08/25 02:16:16;;;;;;;0.73;0.20;;;22.70;99.90;;;;;;5102619;28;20073;-68
2023/08/25 02:18:42;;;;;;;4.03;1.08;;;22.70;99.90;;;;;;5120448;28;20523;-69
2023/08/25 02:21:07;;;;;;;3.97;0.73;;;22.60;99.90;;;;;;5120353;28;20026;-68
2023/08/25 02:23:33;;;;;;;2.33;0.40;;;22.60;99.90;;;;;;5120575;28;20020;-68
2023/08/25 02:25:58;;;;;;;5.88;0.50;;;22.50;99.90;;;;;;5102196;28;20027;-69
2023/08/25 02:28:24;;;;;;;3.95;0.47;;;22.50;99.90;;;;;;5102209;28;20077;-68
2023/08/25 02:30:50;;;;;;;1.67;0.73;;;22.40;99.90;;;;;;5120851;28;20054;-68
2023/08/25 02:33:15;;;;;;;9.77;1.45;;;22.40;99.90;;;;;;5120175;28;20114;-69
2023/08/25 02:35:42;;;;;;;3.83;0.80;;;22.40;99.90;;;;;;5102070;28;20055;-68
2023/08/25 02:38:11;;;;;;;2.75;0.43;;;22.40;99.90;;;;;;5101988;28;20427;-68
2023/08/25 02:40:40;;;;;;;1.95;0.68;;;22.30;99.90;;;;;;5118390;28;20423;-68
2023/08/25 02:43:07;;;;;;;1.77;0.50;;;22.30;99.90;;;;;;5117099;28;20028;-69
2023/08/25 02:45:33;;;;;;;2.80;0.50;;;22.30;99.90;;;;;;5117339;28;20064;-69
2023/08/25 02:47:59;;;;;;;2.28;0.50;;;22.20;99.90;;;;;;5117572;28;20107;-68
2023/08/25 02:50:24;;;;;;;1.50;0.57;;;22.20;99.90;;;;;;5117020;28;20131;-68
2023/08/25 02:52:50;;;;;;;1.45;0.38;;;22.10;99.90;;;;;;5116709;28;20024;-68
2023/08/25 02:55:19;;;;;;;1.50;0.60;;;22.10;99.90;;;;;;5116933;28;20024;-68
2023/08/25 02:57:45;;;;;;;1.33;0.70;;;22.10;99.90;;;;;;5116736;28;20020;-68
2023/08/25 03:00:13;;;;;;;2.97;0.60;;;22.10;99.90;;;;;;5116732;28;20031;-69
2023/08/25 03:02:39;;;;;;;1.75;0.55;;;22.00;99.90;;;;;;5098465;28;20115;-68
2023/08/25 03:05:05;;;;;;;2.85;0.60;;;22.00;99.90;;;;;;5117303;28;20051;-68
2023/08/25 03:07:32;;;;;;;2.58;0.50;;;22.00;99.90;;;;;;5116971;28;20107;-68
2023/08/25 03:09:58;;;;;;;2.65;0.60;;;22.00;99.90;;;;;;5098563;28;20028;-68
2023/08/25 03:12:24;;;;;;;1.35;0.40;;;22.00;99.90;;;;;;5098246;28;20024;-68
2023/08/25 03:14:50;;;;;;;0.82;0.38;;;21.90;99.90;;;;;;5117129;28;20028;-69
2023/08/25 03:17:17;;;;;;;5.72;0.60;;;21.90;99.90;;;;;;5116405;28;20034;-69
2023/08/25 03:19:42;;;;;;;1.52;0.50;;;21.90;99.90;;;;;;5116471;28;20044;-68
2023/08/25 03:22:08;;;;;;;1.80;0.50;;;21.90;99.90;;;;;;5116419;28;20419;-69
2023/08/25 03:24:34;;;;;;;1.20;0.40;;;21.90;99.90;;;;;;5098134;28;20023;-69
2023/08/25 03:27:00;;;;;;;2.10;0.75;;;21.90;99.90;;;;;;5098062;28;20070;-68
2023/08/25 03:29:25;;;;;;;2.80;0.90;;;21.80;99.90;;;;;;5098303;28;20075;-69
2023/08/25 03:31:52;;;;;;;1.92;1.33;;;21.80;99.90;;;;;;5116007;28;20020;-68
2023/08/25 03:34:18;;;;;;;1.88;0.75;;;21.80;99.90;;;;;;5116156;28;20030;-68
2023/08/25 03:36:45;;;;;;;1.80;0.60;;;21.80;99.90;;;;;;5098141;28;20024;-69
2023/08/25 03:39:10;;;;;;;1.45;0.60;;;21.70;99.90;;;;;;5116062;28;20042;-69
2023/08/25 03:41:36;;;;;;;1.75;1.30;;;21.70;99.90;;;;;;5116092;28;20024;-69
2023/08/25 03:44:02;;;;;;;0.63;0.60;;;21.70;99.90;;;;;;5115962;28;20028;-69
2023/08/25 03:46:27;;;;;;;2.53;0.90;;;21.70;99.90;;;;;;5115728;28;20497;-69
2023/08/25 03:48:53;;;;;;;0.70;0.45;;;21.60;99.90;;;;;;5097524;28;20057;-68
2023/08/25 03:51:19;;;;;;;1.85;0.50;;;21.60;99.90;;;;;;5115841;28;20027;-69
2023/08/25 03:53:45;;;;;;;3.90;0.60;;;21.60;99.90;;;;;;5114502;28;20027;-69
2023/08/25 03:56:10;;;;;;;3.83;0.55;;;21.50;99.90;;;;;;5115823;28;20459;-64
2023/08/25 03:58:36;;;;;;;2.03;0.47;;;21.50;99.90;;;;;;5115544;28;20034;-65
2023/08/25 04:01:03;;;;;;;3.80;0.98;;;21.40;99.90;;;;;;5097415;28;20114;-64
2023/08/25 04:03:28;;;;;;;4.78;0.65;;;21.50;99.90;;;;;;5115535;28;20051;-64
2023/08/25 04:05:54;;;;;;;1.13;0.65;;;21.50;99.90;;;;;;5097262;28;20452;-65
2023/08/25 04:08:20;;;;;;;2.50;0.50;;;21.50;99.90;;;;;;5096912;28;20460;-64
2023/08/25 04:10:46;;;;;;;3.13;0.70;;;21.50;99.90;;;;;;5097230;28;20115;-64
2023/08/25 04:13:12;;;;;;;1.25;0.65;;;21.50;99.90;;;;;;5097061;28;20028;-64
2023/08/25 04:15:37;;;;;;;3.45;0.70;;;21.50;99.90;;;;;;5115331;28;20023;-64
2023/08/25 04:18:04;;;;;;;1.52;0.60;;;21.50;99.90;;;;;;5097053;28;20036;-64
2023/08/25 04:20:30;;;;;;;2.97;0.60;;;21.50;99.90;;;;;;5115346;28;20031;-64
2023/08/25 04:22:56;;;;;;;2.63;0.85;;;21.50;99.90;;;;;;5115357;28;20039;-66
2023/08/25 04:25:21;;;;;;;5.07;0.98;;;21.50;99.90;;;;;;5115316;28;20031;-64
2023/08/25 04:27:47;;;;;;;3.70;0.70;;;21.50;99.90;;;;;;5115117;28;20460;-64
2023/08/25 04:30:13;;;;;;;3.47;0.80;;;21.50;99.90;;;;;;5115093;28;20108;-64
2023/08/25 04:32:39;;;;;;;3.38;1.15;;;21.60;99.90;;;;;;5096788;28;20118;-64
2023/08/25 04:35:05;;;;;;;4.00;0.82;;;21.50;99.90;;;;;;5096770;28;20429;-64
2023/08/25 04:37:31;;;;;;;1.02;0.70;;;21.50;99.90;;;;;;5097258;28;20023;-64
2023/08/25 04:39:56;;;;;;;1.30;0.80;;;21.50;99.90;;;;;;5115002;28;20031;-64
2023/08/25 04:42:22;;;;;;;2.33;0.77;;;21.40;99.90;;;;;;5114889;28;20081;-64
2023/08/25 04:44:48;;;;;;;1.63;0.63;;;21.40;99.90;;;;;;5097893;28;20079;-65
2023/08/25 04:47:15;;;;;;;4.20;0.60;;;21.30;99.90;;;;;;5117384;28;20480;-65
2023/08/25 04:49:43;;;;;;;3.75;0.77;;;21.30;99.90;;;;;;5117790;28;20074;-65
2023/08/25 04:52:08;;;;;;;2.53;0.73;;;21.30;99.90;;;;;;5101041;28;20028;-65
2023/08/25 04:54:34;;;;;;;2.60;1.05;;;21.40;99.90;;;;;;5116828;28;20088;-65
2023/08/25 04:57:00;;;;;;;3.85;0.93;;;21.40;99.90;;;;;;5114851;28;20024;-65
2023/08/25 04:59:25;;;;;;;3.42;0.73;;;21.40;99.90;;;;;;5114761;28;20036;-65
2023/08/25 05:01:51;;;;;;;3.78;0.63;;;21.40;99.90;;;;;;5114785;28;20028;-64
2023/08/25 05:04:16;;;;;;;3.08;1.83;;;21.40;99.90;;;;;;5114025;28;20110;-64
2023/08/25 05:06:42;;;;;;;2.70;0.70;;;21.40;99.90;;;;;;5114299;28;20027;-64
2023/08/25 05:09:08;;;;;;;4.40;0.82;;;21.30;99.90;;;;;;5114561;28;20024;-64
2023/08/25 05:11:34;;;;;;;4.20;0.55;;;21.30;99.90;;;;;;5114120;28;20492;-64
2023/08/25 05:14:00;;;;;;;1.73;0.85;;;21.30;99.90;;;;;;5095860;28;20051;-65
2023/08/25 05:16:26;;;;;;;1.98;0.70;;;21.30;99.90;;;;;;5116377;28;20024;-64
2023/08/25 05:18:51;;;;;;;3.33;1.20;;;21.20;99.90;;;;;;5121552;28;20028;-64
2023/08/25 05:21:17;;;;;;;1.83;0.70;;;21.30;99.90;;;;;;5119402;28;20055;-65
2023/08/25 05:23:46;;;;;;;2.30;0.82;;;21.20;99.90;;;;;;5101030;28;20019;-64
2023/08/25 05:26:13;;;;;;;1.55;0.70;;;21.20;99.90;;;;;;5099719;28;20080;-65
2023/08/25 05:28:39;;;;;;;3.55;0.90;;;21.20;99.90;;;;;;5097124;28;20028;-65
2023/08/25 05:31:05;;;;;;;7.32;1.23;;;21.20;99.90;;;;;;5114251;28;20031;-58
2023/08/25 05:33:30;;;;;;;2.47;1.20;;;21.20;99.90;;;;;;5114065;28;20106;-58
2023/08/25 05:35:56;;;;;;;3.50;1.00;;;21.30;99.90;;;;;;5113771;28;20373;-58
2023/08/25 05:38:21;;;;;;;3.78;1.33;;;21.40;99.90;;;;;;5114008;28;20041;-59
2023/08/25 05:40:47;;;;;;;5.45;1.00;;;21.50;99.90;;;;;;5113705;28;20028;-58
2023/08/25 05:43:12;;;;;;;2.00;0.80;;;21.50;99.90;;;;;;5114029;28;20023;-58
2023/08/25 05:45:38;;;;;;;2.15;1.00;;;21.60;99.90;;;;;;5095781;28;20027;-57
2023/08/25 05:48:04;;;;;;;3.78;0.75;;;21.60;99.90;;;;;;5114002;28;20457;-58
2023/08/25 05:50:30;;;;;;;2.58;1.10;;;21.70;99.90;;;;;;5114077;28;20040;-58
2023/08/25 05:52:56;;;;;;;2.58;0.88;;;21.80;99.90;;;;;;5114219;28;20389;-58
2023/08/25 05:55:21;;;;;;;4.45;1.25;;;21.90;99.90;;;;;;5113964;28;20027;-58
2023/08/25 05:57:47;;;;;;;3.90;0.82;;;21.90;99.90;;;;;;5114107;28;20028;-58
2023/08/25 06:00:13;;;;;;;2.90;1.15;;;21.90;99.90;;;;;;5113838;28;20027;-58
2023/08/25 06:02:40;;;;;;;4.88;0.90;;;21.90;99.90;;;;;;5113581;28;20032;-58
2023/08/25 06:05:06;;;;;;;2.40;0.95;;;22.00;99.90;;;;;;5113830;28;20387;-58
2023/08/25 06:07:31;;;;;;;2.22;1.05;;;21.90;99.90;;;;;;5113819;28;20032;-57
2023/08/25 06:09:57;;;;;;;3.58;1.35;;;22.00;99.90;;;;;;5114035;28;20097;-58
2023/08/25 06:12:23;;;;;;;6.50;1.15;;;21.90;99.90;;;;;;5113751;28;20098;-58
2023/08/25 06:14:49;;;;;;;3.13;0.85;;;21.90;99.90;;;;;;5113522;28;20028;-58
2023/08/25 06:17:15;;;;;;;5.05;0.85;;;21.80;99.90;;;;;;5116449;28;20072;-58
2023/08/25 06:19:43;;;;;;;4.47;0.90;;;22.00;99.90;;;;;;5117374;28;20139;-58
2023/08/25 06:22:10;;;;;;;2.92;0.80;;;22.60;99.90;;;;;;5117547;28;20461;-58
2023/08/25 06:24:35;;;;;;;8.52;1.00;;;23.10;99.90;;;;;;5117470;28;20024;-58
2023/08/25 06:27:02;;;;;;;3.50;0.90;;;23.90;99.90;;;;;;5117663;28;20063;-58
2023/08/25 06:29:29;;;;;;;6.53;0.85;;;24.40;99.90;;;;;;5117354;28;20532;-56
2023/08/25 06:31:56;;;;;;;3.67;0.90;;;25.00;99.90;;;;;;5117559;28;20024;-70
2023/08/25 06:34:21;;;;;;;2.03;0.77;;;25.60;99.90;;;;;;5117332;28;20035;-74
2023/08/25 06:36:47;;;;;;;6.78;0.85;;;26.30;99.90;;;;;;5099003;28;20023;-74
2023/08/25 06:39:13;;;;;;;2.58;0.90;;;26.80;99.90;;;;;;5117126;28;20027;-73
2023/08/25 06:41:38;;;;;;;3.35;0.98;;;27.20;99.90;;;;;;5117211;28;20362;-74
2023/08/25 06:44:04;;;;;;;6.18;1.27;;;27.70;99.40;;;;;;5099402;28;20076;-73
2023/08/25 06:46:30;;;;;;;5.28;1.20;;;28.00;98.30;;;;;;5117473;28;20468;-74
2023/08/25 06:48:56;;;;;;;1.98;0.77;;;28.40;97.10;;;;;;5098393;28;20027;-73
2023/08/25 06:51:21;;;;;;;4.22;1.15;;;28.80;96.30;;;;;;5117097;28;20023;-73
2023/08/25 06:53:47;;;;;;;2.90;1.10;;;29.20;95.50;;;;;;5116896;28;20070;-73
2023/08/25 06:56:13;;;;;;;2.97;1.27;;;29.60;94.10;;;;;;5098798;28;20028;-73
2023/08/25 06:58:38;;;;;;;3.72;1.10;;;29.90;93.40;;;;;;5116595;28;20106;-72
2023/08/25 07:01:04;;;;;;;2.75;1.25;;;30.30;92.20;;;;;;5117185;28;20056;-72
2023/08/25 07:03:30;;;;;;;4.53;1.17;;;30.80;91.70;;;;;;5098608;28;20019;-72
2023/08/25 07:05:58;;;;;;;5.38;1.30;;;31.10;90.00;;;;;;5098811;28;20023;-72
2023/08/25 07:08:25;;;;;;;5.77;1.10;;;31.00;89.20;;;;;;5098591;28;20448;-71
2023/08/25 07:10:51;;;;;;;4.05;1.15;;;31.10;88.30;;;;;;5116651;28;20020;-74
2023/08/25 07:13:17;;;;;;;2.63;1.20;;;31.30;87.40;;;;;;5098578;28;20020;-74
2023/08/25 07:15:43;;;;;;;7.50;1.48;;;31.30;86.20;;;;;;5116321;28;20407;-73
2023/08/25 07:18:09;;;;;;;3.42;1.10;;;31.10;86.50;;;;;;5098115;28;20023;-72
2023/08/25 07:20:35;;;;;;;3.42;1.50;;;31.00;86.30;;;;;;5098199;28;20185;-72
2023/08/25 07:23:00;;;;;;;3.42;1.60;;;31.20;86.20;;;;;;5098163;28;20115;-73
2023/08/25 07:25:26;;;;;;;4.28;1.50;;;31.80;84.90;;;;;;5116536;28;20073;-72
2023/08/25 07:27:52;;;;;;;2.95;1.65;;;32.20;82.80;;;;;;5115965;28;20050;-72
2023/08/25 07:30:17;;;;;;;5.05;1.50;;;32.50;81.40;;;;;;5116338;28;20525;-72
2023/08/25 07:32:43;;;;;;;4.60;1.50;;;32.70;80.50;;;;;;5116551;28;20023;-74
2023/08/25 07:35:09;;;;;;;2.95;1.70;;;32.80;79.10;;;;;;5097989;28;20020;-72
2023/08/25 07:37:37;;;;;;;4.18;1.60;;;33.00;79.00;;;;;;5116213;28;20110;-73
2023/08/25 07:40:05;;;;;;;4.22;1.75;;;33.40;76.60;;;;;;5097874;28;20031;-74
2023/08/25 07:42:31;;;;;;;5.95;1.75;;;33.90;75.70;;;;;;5097492;28;20080;-75
2023/08/25 07:44:56;;;;;;;7.18;2.42;;;34.20;74.40;;;;;;5115633;28;20035;-75
2023/08/25 07:47:22;;;;;;;3.15;1.80;;;34.30;73.50;;;;;;5115561;28;20032;-72
2023/08/25 07:49:48;;;;;;;5.57;1.90;;;34.70;71.50;;;;;;5097220;28;20043;-74
2023/08/25 07:52:13;;;;;;;5.63;1.83;;;34.80;70.60;;;;;;5115816;28;20024;-72
2023/08/25 07:54:39;;;;;;;6.93;1.80;;;34.60;69.60;;;;;;5115933;28;20024;-74
2023/08/25 07:57:05;;;;;;;7.30;1.95;;;34.80;69.60;;;;;;5097504;28;20110;-75
2023/08/25 07:59:30;;;;;;;3.10;1.63;;;34.90;69.90;;;;;;5115664;28;20488;-75
2023/08/25 08:01:56;;;;;;;4.90;2.05;;;35.60;68.30;;;;;;5097495;28;20445;-75
2023/08/25 08:04:22;;;;;;;3.45;2.08;;;35.80;67.30;;;;;;5097178;28;20118;-74
2023/08/25 08:06:48;;;;;;;8.07;2.25;;;36.30;65.40;;;;;;5115899;28;20024;-75
2023/08/25 08:09:14;;;;;;;3.05;1.52;;;36.80;64.50;;;;;;5115521;28;20024;-75
2023/08/25 08:11:39;;;;;;;4.70;1.92;;;37.40;61.40;;;;;;5115104;28;20118;-75
2023/08/25 08:14:05;;;;;;;6.47;1.80;;;37.20;60.00;;;;;;5097091;28;20540;-75
2023/08/25 08:16:31;;;;;;;2.38;1.70;;;36.80;60.50;;;;;;5115380;28;20487;-74
2023/08/25 08:18:56;;;;;;;6.53;1.95;;;36.60;61.00;;;;;;5097036;28;20496;-75
2023/08/25 08:21:22;;;;;;;5.45;2.00;;;36.40;61.40;;;;;;5097571;28;20100;-74
2023/08/25 08:23:47;;;;;;;4.68;1.77;;;36.30;61.40;;;;;;5115082;28;20572;-75
2023/08/25 08:26:13;;;;;;;5.05;2.22;;;36.30;60.80;;;;;;5096662;28;20505;-75
2023/08/25 08:28:39;;;;;;;6.05;2.17;;;36.10;61.70;;;;;;5115059;28;20027;-74
2023/08/25 08:31:05;;;;;;;4.57;2.20;;;36.30;61.00;;;;;;5096663;28;20372;-74
2023/08/25 08:33:32;;;;;;;3.42;2.00;;;36.30;60.40;;;;;;5095045;28;20024;-74
2023/08/25 08:35:58;;;;;;;5.88;2.00;;;36.60;59.70;;;;;;5074610;28;20028;-74
2023/08/25 08:38:23;;;;;;;4.97;2.05;;;36.30;60.80;;;;;;5075849;28;20046;-74
2023/08/25 08:40:50;;;;;;;5.15;2.45;;;36.30;60.60;;;;;;5094279;28;20032;-74
2023/08/25 08:43:17;;;;;;;4.28;2.10;;;36.70;59.30;;;;;;5076259;28;20024;-74
2023/08/25 08:45:44;;;;;;;;;;;37.40;57.60;;;;;;5091533;28;20461;-74
2023/08/25 08:48:13;;;;;;;5.05;2.05;;;37.80;56.70;;;;;;5076175;28;20364;-74
2023/08/25 08:50:39;;;;;;;3.08;2.50;;;38.20;56.40;;;;;;5094488;28;20491;-74
2023/08/25 08:53:06;;;;;;;3.95;2.03;;;38.60;55.90;;;;;;5094294;28;20028;-74
2023/08/25 08:55:34;;;;;;;3.22;1.80;;;38.80;55.30;;;;;;5094310;28;20020;-74
2023/08/25 08:57:59;;;;;;;3.87;2.30;;;38.60;55.10;;;;;;5075913;28;20039;-74
2023/08/25 09:00:27;;;;;;;3.92;2.15;;;38.20;53.90;;;;;;5076424;28;20270;-74
2023/08/25 09:02:56;;;;;;;5.07;2.45;;;37.80;55.00;;;;;;5076182;28;20035;-74
2023/08/25 09:05:27;;;;;;;4.13;2.17;;;37.80;57.00;;;;;;5094117;28;20032;-74
2023/08/25 09:07:59;;;;;;;7.65;2.00;;;38.10;55.70;;;;;;5094279;28;20028;-75
2023/08/25 09:10:25;;;;;;;3.28;2.38;;;38.40;56.80;;;;;;5094112;28;20020;-75
2023/08/25 09:12:51;;;;;;;5.00;2.38;;;38.70;55.70;;;;;;5075914;28;20137;-74
2023/08/25 09:15:31;;;;;;;5.78;2.65;;;39.20;53.50;;;;;;5094060;28;20047;-75
2023/08/25 09:18:05;;;;;;;2.88;2.17;;;40.00;51.90;;;;;;5093894;28;20121;-75
2023/08/25 09:20:35;;;;;;;4.97;2.17;;;40.60;50.90;;;;;;5094199;28;20157;-75
2023/08/25 09:23:02;;;;;;;5.78;2.42;;;41.30;49.70;;;;;;5094592;28;20028;-75
2023/08/25 09:25:28;;;;;;;3.40;2.20;;;41.40;47.80;;;;;;5095451;28;20111;-74
2023/08/25 09:28:01;;;;;;;4.93;1.95;;;40.10;48.20;;;;;;5094945;28;20063;-75
2023/08/25 09:30:47;;;;;;;3.97;1.73;;;39.60;48.40;;;;;;5094339;28;20119;-74
2023/08/25 09:33:14;;;;;;;7.38;1.70;;;38.90;48.20;;;;;;5075719;28;20042;-74
2023/08/25 09:35:40;;;;;;;1.83;1.23;;;38.70;49.00;;;;;;5076034;28;20085;-75
2023/08/25 09:38:07;;;;;;;2.13;1.07;;;39.00;48.40;;;;;;5093755;28;20409;-74
2023/08/25 09:40:36;;;;;;;2.05;1.25;;;39.30;46.00;;;;;;5093810;28;20032;-75
2023/08/25 09:43:03;;;;;;;1.75;1.35;;;39.50;45.60;;;;;;5075598;28;20067;-74
2023/08/25 09:45:33;;;;;;;4.90;1.60;;;40.10;45.80;;;;;;5075701;28;20056;-74
2023/08/25 09:48:12;;;;;;;4.80;1.40;;;41.00;45.90;;;;;;5093845;28;20032;-74
2023/08/25 09:50:43;;;;;;;4.75;1.52;;;40.90;43.40;;;;;;5065944;28;20048;-75
2023/08/25 09:53:12;;;;;;;5.78;1.30;;;41.00;43.40;;;;;;5095834;28;20035;-74
2023/08/25 09:55:39;;;;;;;2.97;1.10;;;41.00;42.20;;;;;;5096527;28;20039;-74
2023/08/25 09:58:09;;;;;;;1.98;1.35;;;40.90;42.30;;;;;;5097813;28;20028;-75
2023/08/25 10:00:39;;;;;;;2.83;1.30;;;41.00;42.00;;;;;;5096390;28;20032;-75
2023/08/25 10:03:09;;;;;;;1.77;1.02;;;41.40;41.50;;;;;;5096566;28;20049;-75
2023/08/25 10:05:36;;;;;;;1.75;1.10;;;41.70;40.30;;;;;;5096861;28;20024;-75
2023/08/25 10:08:02;;;;;;;1.33;0.70;;;41.70;40.00;;;;;;5096227;28;20031;-75
2023/08/25 10:10:34;;;;;;;1.30;0.82;;;42.20;39.00;;;;;;5097302;28;20028;-74
2023/08/25 10:13:03;;;;;;;0.65;0.63;;;42.30;38.70;;;;;;5095860;28;20024;-74
2023/08/25 10:15:30;;;;;;;2.22;1.10;;;42.70;37.90;;;;;;5097204;28;20488;-74
2023/08/25 10:18:03;;;;;;;;;;;43.50;38.90;;;;;;5097628;28;20032;-74
2023/08/25 10:20:33;;;;;;;1.33;0.77;;;43.60;36.50;;;;;;5096036;28;19908;-75
2023/08/25 10:23:00;;;;;;;2.05;0.85;;;43.60;36.40;;;;;;5097391;28;20522;-75
2023/08/25 10:25:31;;;;;;;2.35;0.70;;;43.80;36.20;;;;;;5096077;28;20028;-75
2023/08/25 10:28:00;;;;;;;0.93;0.70;;;43.30;36.50;;;;;;5097690;28;20040;-74
2023/08/25 10:30:27;;;;;;;0.88;0.88;;;43.20;35.80;;;;;;5100729;28;20035;-74
2023/08/25 10:32:58;;;;;;;3.42;0.82;;;43.00;35.60;;;;;;5103341;28;20024;-75
2023/08/25 10:35:53;;;;;;;1.23;0.77;;;42.80;35.00;;;;;;5102155;28;20032;-75
2023/08/25 10:38:19;;;;;;;1.23;0.83;;;42.80;35.80;;;;;;5089993;28;20500;-75
2023/08/25 10:40:55;;;;;;;1.63;0.90;;;43.30;36.00;;;;;;5102758;28;20054;-75
2023/08/25 10:43:30;;;;;;;2.80;1.23;;;44.10;34.80;;;;;;5100048;28;20037;-74
2023/08/25 10:45:56;;;;;;;1.88;1.10;;;44.50;34.30;;;;;;5097400;28;20286;-76
2023/08/25 10:48:25;;;;;;;0.70;0.70;;;44.20;33.40;;;;;;5095338;28;20059;-74
2023/08/25 10:50:52;;;;;;;1.15;1.05;;;43.60;34.10;;;;;;5113920;28;20126;-75
2023/08/25 10:53:37;;;;;;;1.70;0.73;;;43.40;34.80;;;;;;5098634;28;20024;-75
2023/08/25 10:56:33;;;;;;;2.50;1.10;;;43.90;33.80;;;;;;5117084;28;20027;-74
2023/08/25 10:59:07;;;;;;;2.73;0.90;;;43.60;34.40;;;;;;5095592;28;20213;-75
2023/08/25 11:01:38;;;;;;;3.65;0.70;;;44.00;34.00;;;;;;5116208;28;20311;-74
2023/08/25 11:04:29;;;;;;;1.67;0.73;;;44.20;33.00;;;;;;5116762;28;20027;-74
2023/08/25 11:06:57;;;;;;;1.00;0.77;;;44.30;33.20;;;;;;5098096;28;20114;-74
2023/08/25 11:09:35;;;;;;;1.65;0.70;;;44.40;32.10;;;;;;5098751;28;20035;-74
2023/08/25 11:12:08;;;;;;;1.35;0.80;;;44.50;32.70;;;;;;5116986;28;20024;-74
2023/08/25 11:14:36;;;;;;;0.80;0.80;;;45.20;32.10;;;;;;5116619;28;20024;-74
2023/08/25 11:17:07;;;;;;;1.00;0.90;;;44.90;32.00;;;;;;5116346;28;20032;-74
2023/08/25 11:19:36;;;;;;;0.75;0.75;;;45.00;32.30;;;;;;5098206;28;20122;-74
2023/08/25 11:22:05;;;;;;;1.70;1.20;;;45.40;31.70;;;;;;5098225;28;20552;-75
2023/08/25 11:24:31;;;;;;;1.40;1.10;;;45.50;31.40;;;;;;5098463;28;20054;-73
2023/08/25 11:27:09;;;;;;;1.13;0.80;;;45.40;31.30;;;;;;5098474;28;20487;-74
2023/08/25 11:29:34;;;;;;;1.42;0.88;;;45.50;31.80;;;;;;5116615;28;20031;-75
2023/08/25 11:32:02;;;;;;;2.47;1.10;;;45.60;32.00;;;;;;5116290;28;20030;-76
2023/08/25 11:34:31;;;;;;;1.33;0.90;;;46.20;30.70;;;;;;5116550;28;20023;-76
2023/08/25 11:36:58;;;;;;;3.22;1.13;;;46.40;30.60;;;;;;5098031;28;20024;-75
2023/08/25 11:39:24;;;;;;;3.03;0.65;;;45.50;31.00;;;;;;5097793;28;20084;-75
2023/08/25 11:41:53;;;;;;;1.98;0.80;;;45.10;30.50;;;;;;5097497;28;20427;-75
2023/08/25 11:44:19;;;;;;;1.30;0.93;;;45.20;30.90;;;;;;5115705;28;20027;-76
2023/08/25 11:46:45;;;;;;;0.73;0.73;;;45.60;30.80;;;;;;5097805;28;20019;-76
2023/08/25 11:49:11;;;;;;;1.35;1.10;;;45.90;29.90;;;;;;5097364;28;20043;-76
2023/08/25 11:51:37;;;;;;;1.33;0.70;;;45.70;30.50;;;;;;5097524;28;20027;-76
2023/08/25 11:54:04;;;;;;;0.98;0.98;;;46.10;30.80;;;;;;5115664;28;20028;-76
2023/08/25 11:56:29;;;;;;;;;;;46.40;30.60;;;;;;5116515;28;20042;-76
2023/08/25 11:58:55;;;;;;;0.90;0.90;;;46.30;30.50;;;;;;5115780;28;19907;-76
2023/08/25 12:01:20;;;;;;;0.90;0.80;;;46.30;30.40;;;;;;5097457;28;20038;-77
2023/08/25 12:03:47;;;;;;;0.80;0.80;;;46.10;30.70;;;;;;5115910;28;20031;-76
2023/08/25 12:06:15;;;;;;;1.77;1.08;;;45.90;30.20;;;;;;5115887;28;20020;-76
2023/08/25 12:08:41;;;;;;;1.00;0.80;;;45.70;30.30;;;;;;5115477;28;20473;-75
2023/08/25 12:11:10;;;;;;;1.65;1.00;;;45.40;30.30;;;;;;5115916;28;20139;-76
2023/08/25 12:13:41;;;;;;;2.45;1.02;;;45.00;30.70;;;;;;5114530;28;20031;-75
2023/08/25 12:16:06;;;;;;;1.65;0.82;;;44.60;30.80;;;;;;5097269;28;20031;-75
2023/08/25 12:18:40;;;;;;;1.90;0.57;;;44.30;31.20;;;;;;5114897;28;20073;-77
2023/08/25 12:21:06;;;;;;;2.40;0.80;;;44.70;30.80;;;;;;5115419;28;20043;-77
2023/08/25 12:23:39;;;;;;;2.55;0.88;;;44.70;30.80;;;;;;5096576;28;20058;-76
2023/08/25 12:26:11;;;;;;;0.95;0.80;;;44.30;30.80;;;;;;5115191;28;20032;-75
2023/08/25 12:28:38;;;;;;;2.10;0.70;;;42.20;34.80;;;;;;5096877;28;20036;-75
2023/08/25 12:31:04;;;;;;;2.17;0.63;;;41.40;34.10;;;;;;5096837;28;20024;-76
2023/08/25 12:33:31;;;;;;;1.30;0.70;;;41.40;35.20;;;;;;5096887;28;20068;-76
2023/08/25 12:35:58;;;;;;;1.20;0.70;;;40.50;35.00;;;;;;5096855;28;20038;-76
2023/08/25 12:38:24;;;;;;;2.35;0.75;;;39.70;35.70;;;;;;5115018;28;20032;-75
2023/08/25 12:40:49;;;;;;;1.90;0.63;;;39.50;36.90;;;;;;5114949;28;20498;-76
2023/08/25 12:43:15;;;;;;;1.67;0.80;;;39.60;36.60;;;;;;5096739;28;20019;-77
2023/08/25 12:45:41;;;;;;;1.27;0.88;;;39.40;37.00;;;;;;5114683;28;20027;-76
2023/08/25 12:48:07;;;;;;;2.85;0.80;;;39.40;36.50;;;;;;5114951;28;20106;-75